Observations for WELLINGTON INTL, New Zealand (NZWN)

NZWN 202230Z AUTO 18010KT 9999 FEW022/// BKN038/// 16/10 Q1021 NOSIG
NZWN 202200Z AUTO 17011KT 9999 FEW023/// 16/09 Q1021 NOSIG  
NZWN 202130Z AUTO 17010KT 9999 SCT022/// 15/09 Q1021 NOSIG  
NZWN 202100Z AUTO 18009KT 9999 BKN022/// BKN042/// 15/09 Q1021 NOSIG
NZWN 202030Z AUTO 18010KT 9999 OVC024/// 14/10 Q1021 NOSIG  
NZWN 202000Z AUTO 18010KT 9999 OVC024/// 14/10 Q1021 NOSIG  
NZWN 201930Z AUTO 17010KT 9999 BKN024/// 14/10 Q1020 NOSIG  
NZWN 201900Z AUTO 16010KT 9999 FEW041/// 14/10 Q1020 NOSIG  
NZWN 201830Z AUTO 18009KT 9999 BKN022/// 14/10 Q1020 NOSIG  
NZWN 201800Z AUTO 17010KT 9999 OVC021/// 13/09 Q1020 NOSIG  
NZWN 201730Z AUTO 18009KT 9999 SCT022/// 13/09 Q1019 NOSIG  
NZWN 201700Z AUTO 17010KT 9999 FEW035/// 12/09 Q1019 NOSIG  
NZWN 201630Z AUTO 16012KT 9999 BKN020/// OVC034/// 13/10 Q1019 NOSIG
NZWN 201600Z AUTO 16012KT 9999 BKN020/// 13/10 Q1019 TEMPO 6000 DZ BKN012   
NZWN 201530Z AUTO 16011KT 9999 FEW014/// OVC020/// 13/10 Q1019 TEMPO 6000 DZ BKN012 
NZWN 201500Z AUTO 17010KT 9999 BKN017/// OVC022/// 13/11 Q1019 TEMPO 6000 DZ BKN012 
NZWN 201430Z AUTO 17010KT 9999 BKN017/// BKN024/// OVC040/// 13/12 Q1019 TEMPO 6000 DZ BKN012   
NZWN 201400Z AUTO 18007KT 9000 DZ FEW014/// BKN020/// OVC026/// 13/11 Q1019 TEMPO 6000 DZ BKN012
NZWN 201330Z AUTO 18009KT 9999 BKN026/// OVC038/// 13/11 Q1019 TEMPO 6000 DZ BKN012 
NZWN 201300Z AUTO 17010KT 9999 SCT030/// BKN040/// 13/11 Q1020 TEMPO 6000 DZ BKN012 
NZWN 201230Z AUTO 17009KT 9999 FEW026/// 13/11 Q1020 TEMPO 6000 DZ BKN012   
NZWN 201200Z AUTO 18010KT 9999 BKN029/// 13/11 Q1020 TEMPO 6000 DZ BKN012   
NZWN 201130Z AUTO 18008KT 9999 SCT060/// 13/11 Q1020 TEMPO FM1200 6000 DZ BKN012
NZWN 201100Z AUTO 17009KT 9999 FEW018/// 13/10 Q1020 TEMPO FM1200 BKN012
NZWN 201030Z AUTO 17011KT 9999 SCT028/// 13/10 Q1020 NOSIG  
NZWN 201000Z AUTO 18011KT 9999 BKN030/// 13/11 Q1020 NOSIG  
NZWN 200930Z AUTO 19012KT 9999 BKN019/// BKN028/// 14/11 Q1020 NOSIG
NZWN 200900Z AUTO 18010KT 9999 OVC020/// 14/11 Q1020 NOSIG  
NZWN 200830Z AUTO 17009KT 9999 BKN022/// OVC029/// 13/10 Q1019 NOSIG
NZWN 200800Z AUTO 15012KT 9999 FEW020/// BKN026/// 14/09 Q1019 NOSIG
NZWN 200730Z AUTO 16014KT 9999 BKN022/// 14/10 Q1019 NOSIG  
NZWN 200700Z AUTO 15016KT 130V190 9999 BKN022/// 14/09 Q1019 NOSIG  
NZWN 200630Z AUTO 17014KT 9999 FEW020/// 14/10 Q1018 NOSIG  
NZWN 200600Z AUTO 15016KT 9999 NCD 14/09 Q1018 NOSIG
NZWN 200530Z AUTO 16017KT 9999 NCD 15/08 Q1018 NOSIG
NZWN 200500Z AUTO 16017KT 9999 NCD 15/09 Q1018 NOSIG
NZWN 200430Z AUTO 17016KT 9999 NCD 15/10 Q1018 NOSIG
NZWN 200400Z AUTO 16016KT 130V190 9999 NCD 16/09 Q1018 NOSIG
NZWN 200330Z AUTO 16017G27KT 130V200 9999 NCD 16/09 Q1018 NOSIG 
NZWN 200300Z AUTO 17018KT 9999 NCD 16/09 Q1019 NOSIG
NZWN 200230Z AUTO 16019KT 9999 NCD 16/09 Q1019 NOSIG
NZWN 200200Z AUTO 17019KT 9999 NCD 16/08 Q1019 NOSIG
NZWN 200130Z AUTO 16018KT 9999 NCD 16/09 Q1019 NOSIG
NZWN 200100Z AUTO 16017KT 9999 SCT031/// 16/10 Q1019 NOSIG  
NZWN 200030Z AUTO 16015KT 9999 FEW019/// BKN032/// 16/10 Q1019 NOSIG
NZWN 200000Z AUTO 16016KT 9999 BKN031/// 16/10 Q1019 NOSIG  
NZWN 192330Z AUTO 17017KT 9999 OVC021/// 15/10 Q1019 NOSIG  
NZWN 192300Z AUTO 17016KT 9999 OVC024/// 15/08 Q1019 NOSIG  
NZWN 192230Z AUTO 16016KT 9999 OVC030/// 16/09 Q1019 NOSIG  
NZWN 192200Z AUTO 16017KT 9999 BKN033/// 16/08 Q1019 NOSIG